Time;durP1;ratioP1;P1;durP2;ratioP2;P2;SDS_P1;SDS_P2;PMS_P1;PMS_P2;Temp;Humidity;BMP_temperature;BMP_pressure;BME280_temperature;BME280_humidity;BME280_pressure;Samples;Min_cycle;Max_cycle;Signal;HPM_P1;HPM_P2
2024/04/10 00:01:35;;;;;;;2.47;1.10;;;12.50;99.90;;;;;;10610206;26;20024;-71
2024/04/10 00:06:26;;;;;;;2.90;1.00;;;12.60;99.90;;;;;;10604974;26;20002;-70
2024/04/10 00:11:21;;;;;;;5.30;1.23;;;12.40;99.90;;;;;;10610467;26;20005;-71
2024/04/10 00:16:11;;;;;;;3.63;1.07;;;12.40;99.90;;;;;;10608966;26;20001;-71
2024/04/10 00:21:02;;;;;;;2.58;1.30;;;12.40;99.90;;;;;;10605436;26;20359;-71
2024/04/10 00:26:01;;;;;;;5.63;0.95;;;12.40;99.90;;;;;;10606455;26;20005;-69
2024/04/10 00:30:51;;;;;;;3.00;1.05;;;12.40;99.90;;;;;;10608243;26;20451;-70
2024/04/10 00:35:42;;;;;;;2.45;1.27;;;12.50;99.90;;;;;;10606646;26;20013;-70
2024/04/10 00:40:33;;;;;;;3.88;2.08;;;12.50;99.90;;;;;;10607745;26;20002;-70
2024/04/10 00:45:23;;;;;;;2.67;0.90;;;12.40;99.90;;;;;;10603635;26;20001;-70
2024/04/10 00:50:15;;;;;;;2.42;1.13;;;12.50;99.90;;;;;;10599094;26;20009;-71
2024/04/10 00:55:09;;;;;;;3.80;1.17;;;12.50;99.90;;;;;;10606911;26;20046;-69
2024/04/10 01:00:00;;;;;;;1.63;1.00;;;12.50;99.90;;;;;;10607796;26;20009;-69
2024/04/10 01:04:50;;;;;;;2.95;1.42;;;12.40;99.90;;;;;;10605384;26;20012;-69
2024/04/10 01:09:41;;;;;;;3.15;1.15;;;12.40;99.90;;;;;;10607204;27;20008;-69
2024/04/10 01:14:31;;;;;;;3.00;1.25;;;12.30;99.90;;;;;;10606745;26;20494;-69
2024/04/10 01:19:22;;;;;;;2.63;1.20;;;12.30;99.90;;;;;;10604975;26;20017;-70
2024/04/10 01:24:13;;;;;;;4.30;1.15;;;12.40;99.90;;;;;;10606520;26;20415;-69
2024/04/10 01:29:03;;;;;;;4.40;1.40;;;12.30;99.90;;;;;;10602822;26;20013;-70
2024/04/10 01:33:54;;;;;;;3.40;1.25;;;12.20;99.90;;;;;;10608740;26;20001;-71
2024/04/10 01:38:46;;;;;;;1.98;0.95;;;12.20;99.90;;;;;;10610885;26;20008;-70
2024/04/10 01:43:36;;;;;;;3.15;1.52;;;12.10;99.90;;;;;;10596442;26;20017;-70
2024/04/10 01:48:27;;;;;;;2.30;1.17;;;12.10;99.90;;;;;;10612142;26;20951;-70
2024/04/10 01:53:17;;;;;;;2.25;1.40;;;12.10;99.90;;;;;;10592332;26;20014;-70
2024/04/10 01:58:08;;;;;;;2.08;1.08;;;12.10;99.90;;;;;;10593068;26;20006;-70
2024/04/10 02:02:59;;;;;;;4.97;1.30;;;12.10;99.90;;;;;;10598718;26;19998;-70
2024/04/10 02:07:50;;;;;;;2.25;0.93;;;12.10;99.90;;;;;;10611570;26;20005;-70
2024/04/10 02:12:40;;;;;;;1.75;1.25;;;12.20;99.90;;;;;;10610125;26;20075;-71
2024/04/10 02:17:31;;;;;;;2.33;0.80;;;12.20;99.90;;;;;;10611924;26;20041;-71
2024/04/10 02:22:27;;;;;;;3.35;0.93;;;12.20;99.90;;;;;;10611910;26;20014;-71
2024/04/10 02:27:18;;;;;;;1.23;1.00;;;12.10;99.90;;;;;;10607764;26;20020;-71
2024/04/10 02:32:09;;;;;;;3.47;1.45;;;12.20;99.90;;;;;;10611818;26;20347;-71
2024/04/10 02:37:00;;;;;;;5.00;1.10;;;12.20;99.90;;;;;;10603580;26;20041;-71
2024/04/10 02:41:50;;;;;;;1.65;0.90;;;12.20;99.90;;;;;;10609643;26;20580;-69
2024/04/10 02:46:41;;;;;;;4.10;1.00;;;12.30;99.90;;;;;;10610312;26;20013;-70
2024/04/10 02:51:32;;;;;;;1.35;0.90;;;12.20;99.90;;;;;;10611388;26;20004;-68
2024/04/10 02:56:23;;;;;;;2.97;0.57;;;12.20;99.90;;;;;;10608623;26;20017;-70
2024/04/10 03:01:14;;;;;;;2.22;0.40;;;12.20;99.90;;;;;;10611263;26;20108;-71
2024/04/10 03:06:07;;;;;;;4.57;0.98;;;12.30;99.90;;;;;;10608184;26;20010;-72
2024/04/10 03:10:58;;;;;;;1.30;0.80;;;12.20;99.90;;;;;;10608144;26;20006;-70
2024/04/10 03:15:49;;;;;;;3.83;0.95;;;12.10;99.90;;;;;;10609868;26;20005;-71
2024/04/10 03:20:40;;;;;;;1.13;0.60;;;12.00;99.90;;;;;;10610035;27;20002;-70
2024/04/10 03:25:33;;;;;;;4.88;0.80;;;12.00;99.90;;;;;;10599004;26;20037;-71
2024/04/10 03:30:24;;;;;;;1.48;0.65;;;12.00;99.90;;;;;;10609917;26;19994;-69
2024/04/10 03:35:14;;;;;;;1.35;0.82;;;11.90;99.90;;;;;;10605509;26;20080;-70
2024/04/10 03:40:06;;;;;;;3.78;1.15;;;11.90;99.90;;;;;;10604028;26;20036;-70
2024/04/10 03:44:57;;;;;;;2.67;0.80;;;11.90;99.90;;;;;;10609799;26;20012;-69
2024/04/10 03:49:48;;;;;;;6.55;1.42;;;11.90;99.90;;;;;;10605271;26;20050;-70
2024/04/10 03:54:38;;;;;;;1.80;0.73;;;11.90;99.90;;;;;;10607409;26;20362;-69
2024/04/10 03:59:29;;;;;;;1.42;0.75;;;11.90;99.90;;;;;;10608705;26;20001;-69
2024/04/10 04:04:20;;;;;;;2.80;1.10;;;11.90;99.90;;;;;;10608496;26;20032;-69
2024/04/10 04:09:10;;;;;;;3.20;0.70;;;11.90;99.90;;;;;;10608910;26;20001;-69
2024/04/10 04:14:03;;;;;;;2.25;0.68;;;11.90;99.90;;;;;;10608748;26;20013;-69
2024/04/10 04:21:55;;;;;;;5.10;2.25;;;11.80;99.90;;;;;;11094741;25;20301;-68
2024/04/10 04:26:46;;;;;;;5.22;1.10;;;11.80;99.90;;;;;;11036706;25;20111;-69
2024/04/10 04:31:37;;;;;;;2.13;0.60;;;11.90;99.90;;;;;;11008966;25;19994;-69
2024/04/10 04:36:27;;;;;;;3.08;0.93;;;11.90;99.90;;;;;;11050838;25;20090;-69
2024/04/10 04:41:18;;;;;;;2.33;1.00;;;11.90;99.90;;;;;;11056278;25;20005;-68
2024/04/10 04:46:11;;;;;;;3.30;0.73;;;11.80;99.90;;;;;;11041135;25;20002;-68
2024/04/10 04:51:07;;;;;;;2.05;0.70;;;11.70;99.90;;;;;;11004532;25;20355;-69
2024/04/10 04:55:57;;;;;;;;;;;11.70;99.90;;;;;;11024004;25;20005;-68
2024/04/10 05:00:48;;;;;;;2.25;0.60;;;11.70;99.90;;;;;;11021168;25;19948;-69
2024/04/10 05:05:39;;;;;;;2.47;0.88;;;11.70;99.90;;;;;;11040209;25;20670;-69
2024/04/10 05:10:29;;;;;;;2.15;0.80;;;11.70;99.90;;;;;;11024611;25;20046;-69
2024/04/10 05:15:20;;;;;;;1.10;0.80;;;11.70;99.90;;;;;;11010037;25;20488;-69
2024/04/10 05:20:14;;;;;;;3.05;0.80;;;11.70;99.90;;;;;;11013624;25;20009;-70
2024/04/10 05:25:06;;;;;;;2.53;0.88;;;11.70;99.90;;;;;;11010746;25;20066;-71
2024/04/10 05:30:06;;;;;;;8.05;1.23;;;11.70;99.90;;;;;;11003519;25;20001;-69
2024/04/10 05:34:57;;;;;;;1.95;1.02;;;11.80;99.90;;;;;;11002438;26;20001;-71
2024/04/10 05:40:09;;;;;;;4.80;1.80;;;11.90;99.90;;;;;;10996034;26;19997;-69
2024/04/10 05:45:00;;;;;;;4.60;1.70;;;11.90;99.90;;;;;;10976010;26;19997;-71
2024/04/10 05:49:51;;;;;;;2.88;1.75;;;11.90;99.90;;;;;;10979909;26;20006;-71
2024/04/10 05:54:41;;;;;;;2.88;1.30;;;11.90;99.90;;;;;;10975528;26;20047;-71
2024/04/10 05:59:32;;;;;;;7.82;1.35;;;11.90;99.90;;;;;;10973623;26;20086;-70
2024/04/10 06:04:22;;;;;;;2.17;1.52;;;11.80;99.90;;;;;;10992900;26;20038;-71
2024/04/10 06:09:13;;;;;;;3.47;1.52;;;11.80;99.90;;;;;;11031205;26;20012;-71
2024/04/10 06:14:04;;;;;;;1.90;0.93;;;11.80;99.90;;;;;;11001311;26;19994;-70
2024/04/10 06:18:54;;;;;;;4.78;1.15;;;11.80;99.90;;;;;;11019276;26;20332;-70
2024/04/10 06:23:46;;;;;;;2.90;0.95;;;11.90;99.90;;;;;;10992221;26;20641;-70
2024/04/10 06:28:36;;;;;;;3.20;1.17;;;11.90;99.90;;;;;;10982875;26;19997;-71
2024/04/10 06:33:28;;;;;;;5.25;1.08;;;11.90;99.90;;;;;;10992350;26;20705;-70
2024/04/10 06:38:18;;;;;;;3.22;1.17;;;11.90;99.90;;;;;;10963839;25;20419;-69
2024/04/10 06:43:10;;;;;;;5.18;0.90;;;12.00;99.90;;;;;;11012493;26;20012;-68
2024/04/10 06:48:00;;;;;;;3.05;0.82;;;12.00;99.90;;;;;;11016287;26;20319;-69
2024/04/10 06:52:51;;;;;;;3.38;1.13;;;11.80;99.90;;;;;;10981691;26;20008;-68
2024/04/10 06:57:42;;;;;;;3.08;1.20;;;11.80;99.90;;;;;;10974824;26;20254;-69
2024/04/10 07:02:32;;;;;;;8.95;2.05;;;11.80;99.90;;;;;;10979348;26;20001;-70
2024/04/10 07:07:23;;;;;;;3.72;0.80;;;11.90;99.90;;;;;;10981705;25;20001;-69
2024/04/10 07:12:15;;;;;;;3.33;0.75;;;11.90;99.90;;;;;;10969390;26;20024;-70
2024/04/10 07:17:05;;;;;;;3.83;0.97;;;12.00;99.90;;;;;;10972399;25;19998;-68
2024/04/10 07:21:56;;;;;;;1.88;0.90;;;12.10;99.90;;;;;;10991348;26;20212;-68
2024/04/10 07:26:47;;;;;;;3.85;1.20;;;12.10;99.90;;;;;;10949449;26;20347;-68
2024/04/10 07:31:39;;;;;;;2.78;1.10;;;12.00;99.90;;;;;;10969124;26;19998;-68
2024/04/10 07:36:31;;;;;;;3.85;0.82;;;11.90;99.90;;;;;;10987199;26;20001;-69
2024/04/10 07:41:23;;;;;;;4.07;1.27;;;11.90;99.90;;;;;;10977507;26;20004;-67
2024/04/10 07:46:16;;;;;;;2.90;1.30;;;11.90;99.90;;;;;;10991839;26;20030;-67
2024/04/10 07:51:12;;;;;;;4.82;1.27;;;11.90;99.90;;;;;;11001243;25;20002;-68
2024/04/10 07:56:04;;;;;;;2.20;1.23;;;11.90;99.90;;;;;;10970018;26;20601;-70
2024/04/10 08:00:58;;;;;;;5.07;2.85;;;12.00;99.90;;;;;;10965809;26;20728;-69
2024/04/10 08:05:53;;;;;;;4.47;1.27;;;12.10;99.90;;;;;;10973715;26;20365;-67
2024/04/10 08:10:44;;;;;;;5.73;1.10;;;12.30;99.90;;;;;;10962943;26;20028;-67
2024/04/10 08:15:34;;;;;;;2.47;1.15;;;12.40;99.90;;;;;;11006550;26;20454;-69
2024/04/10 08:20:25;;;;;;;5.25;1.10;;;12.40;99.90;;;;;;11000344;26;20002;-66
2024/04/10 08:25:16;;;;;;;5.47;1.80;;;12.40;99.90;;;;;;10976006;26;20067;-68
2024/04/10 08:30:07;;;;;;;4.88;1.40;;;12.40;99.90;;;;;;10943413;26;20002;-68
2024/04/10 08:34:57;;;;;;;2.70;1.55;;;12.50;99.90;;;;;;10959493;26;20013;-67
2024/04/10 08:39:48;;;;;;;6.40;1.30;;;12.50;99.90;;;;;;10972530;26;19998;-69
2024/04/10 08:44:39;;;;;;;3.70;1.23;;;12.70;99.90;;;;;;11017900;26;20193;-68
2024/04/10 08:49:30;;;;;;;5.78;1.50;;;12.70;99.90;;;;;;10968612;26;20002;-68
2024/04/10 08:54:21;;;;;;;6.45;1.52;;;12.70;99.90;;;;;;10940741;26;19998;-68
2024/04/10 08:59:12;;;;;;;2.97;1.20;;;12.70;99.90;;;;;;10976066;26;20002;-68
2024/04/10 09:04:13;;;;;;;7.05;1.38;;;12.80;99.90;;;;;;10976743;26;20047;-67
2024/04/10 09:09:06;;;;;;;3.83;1.25;;;12.70;99.90;;;;;;10972545;26;20010;-68
2024/04/10 09:14:07;;;;;;;3.17;1.17;;;12.70;99.90;;;;;;10981714;26;20009;-69
2024/04/10 09:19:12;;;;;;;4.13;1.45;;;12.80;99.90;;;;;;10971946;26;20012;-68
2024/04/10 09:24:04;;;;;;;2.67;1.27;;;12.70;99.90;;;;;;10974563;26;20027;-68
2024/04/10 09:29:18;;;;;;;2.30;1.02;;;12.80;99.90;;;;;;11005922;25;20328;-68
2024/04/10 09:34:12;;;;;;;8.68;1.77;;;12.90;99.90;;;;;;10998977;26;19998;-68
2024/04/10 09:39:06;;;;;;;3.17;1.38;;;13.00;99.90;;;;;;10959225;26;19994;-68
2024/04/10 09:43:58;;;;;;;2.90;1.38;;;13.10;99.90;;;;;;10983487;25;20006;-69
2024/04/10 09:48:53;;;;;;;5.63;1.52;;;13.00;99.90;;;;;;10968349;26;20065;-68
2024/04/10 09:53:44;;;;;;;3.40;1.10;;;13.00;99.80;;;;;;10993884;26;20001;-67
2024/04/10 09:58:37;;;;;;;4.25;1.63;;;13.20;99.70;;;;;;10999859;25;20304;-68
2024/04/10 10:03:28;;;;;;;2.97;1.20;;;13.40;99.70;;;;;;10984911;25;19998;-66
2024/04/10 10:08:18;;;;;;;4.53;1.08;;;13.40;99.50;;;;;;10983578;26;19995;-67
2024/04/10 10:13:10;;;;;;;2.63;1.45;;;13.40;99.50;;;;;;10973154;26;19994;-69
2024/04/10 10:18:00;;;;;;;2.88;1.45;;;13.20;99.40;;;;;;10965937;26;20005;-71
2024/04/10 10:23:01;;;;;;;2.25;0.90;;;13.20;99.30;;;;;;11024318;26;20037;-69
2024/04/10 10:28:06;;;;;;;3.35;1.70;;;13.30;99.20;;;;;;10961148;25;20443;-71
2024/04/10 10:33:07;;;;;;;4.40;2.07;;;13.40;99.00;;;;;;10957277;26;20011;-68
2024/04/10 10:37:58;;;;;;;5.05;1.35;;;13.60;98.90;;;;;;10939522;26;20078;-69
2024/04/10 10:43:05;;;;;;;2.70;1.95;;;13.70;98.70;;;;;;10951877;26;20003;-70
2024/04/10 10:47:55;;;;;;;2.05;1.40;;;13.80;98.60;;;;;;10977928;26;20006;-69
2024/04/10 10:52:47;;;;;;;2.83;1.00;;;13.90;98.30;;;;;;10998164;25;20014;-71
2024/04/10 10:57:37;;;;;;;1.75;0.88;;;13.80;98.10;;;;;;10978165;26;19999;-70
2024/04/10 11:02:28;;;;;;;3.45;0.95;;;13.80;98.10;;;;;;10909072;26;20701;-72
2024/04/10 11:07:20;;;;;;;3.60;1.00;;;13.70;98.00;;;;;;10934876;26;19994;-70
2024/04/10 11:12:11;;;;;;;2.65;0.93;;;13.60;98.00;;;;;;10917991;26;19998;-69
2024/04/10 11:17:04;;;;;;;2.05;0.52;;;13.80;97.90;;;;;;10935039;26;19998;-72
2024/04/10 11:21:55;;;;;;;2.40;0.85;;;13.90;97.70;;;;;;10995152;26;20042;-70
2024/04/10 11:26:46;;;;;;;3.25;0.70;;;14.00;97.60;;;;;;10972121;26;19994;-71
2024/04/10 11:31:36;;;;;;;3.50;1.05;;;13.90;97.60;;;;;;10963466;25;19989;-70
2024/04/10 11:36:27;;;;;;;1.58;0.82;;;13.90;97.50;;;;;;10978904;25;20066;-67
2024/04/10 11:41:18;;;;;;;5.32;1.02;;;14.00;97.40;;;;;;10960938;26;20012;-70
2024/04/10 11:46:09;;;;;;;3.85;1.50;;;14.20;97.30;;;;;;10950001;26;20067;-70
2024/04/10 11:50:59;;;;;;;2.67;1.05;;;14.40;97.20;;;;;;10956844;26;19998;-69
2024/04/10 11:55:50;;;;;;;2.42;0.70;;;14.60;97.00;;;;;;10960971;26;20012;-69
2024/04/10 12:00:41;;;;;;;5.13;1.70;;;14.60;96.80;;;;;;11002856;26;20005;-69
2024/04/10 12:05:31;;;;;;;5.80;1.30;;;14.70;96.80;;;;;;10967396;26;20055;-70
2024/04/10 12:10:22;;;;;;;3.55;1.02;;;14.70;96.70;;;;;;10966239;26;20006;-69
2024/04/10 12:15:13;;;;;;;2.03;0.82;;;14.60;96.70;;;;;;10990911;25;20002;-72
2024/04/10 12:20:04;;;;;;;3.05;0.52;;;14.40;96.40;;;;;;10971599;26;20030;-70
2024/04/10 12:24:55;;;;;;;1.10;0.70;;;14.50;96.30;;;;;;10975973;26;20004;-73
2024/04/10 12:29:46;;;;;;;4.82;0.77;;;14.50;96.10;;;;;;10989446;26;20009;-70
2024/04/10 12:34:36;;;;;;;1.50;0.90;;;14.60;95.90;;;;;;10980959;25;20012;-72
2024/04/10 12:39:27;;;;;;;2.53;0.60;;;14.70;95.70;;;;;;11001150;26;19990;-69
2024/04/10 12:44:24;;;;;;;3.55;0.90;;;14.70;95.50;;;;;;11015036;26;20424;-70
2024/04/10 12:49:15;;;;;;;1.20;0.50;;;15.00;95.30;;;;;;10989689;25;19997;-68
2024/04/10 12:54:06;;;;;;;2.95;1.02;;;15.40;95.20;;;;;;10980716;26;20038;-69
2024/04/10 12:58:57;;;;;;;1.38;0.70;;;15.50;95.00;;;;;;11013170;26;19993;-71
2024/04/10 13:03:47;;;;;;;2.08;0.70;;;15.70;94.80;;;;;;10970974;26;20589;-67
2024/04/10 13:08:38;;;;;;;2.42;0.70;;;15.90;94.70;;;;;;11002303;26;20006;-69
2024/04/10 13:13:29;;;;;;;2.45;0.82;;;16.10;94.50;;;;;;10980131;26;20508;-69
2024/04/10 13:18:19;;;;;;;5.20;0.80;;;16.30;94.40;;;;;;10995375;25;19998;-69
2024/04/10 13:23:11;;;;;;;2.08;0.73;;;16.60;94.30;;;;;;10983263;26;20017;-70
2024/04/10 13:28:01;;;;;;;2.92;1.30;;;16.80;94.10;;;;;;10974210;26;20128;-72
2024/04/10 13:32:52;;;;;;;4.55;0.77;;;17.00;94.00;;;;;;10963269;26;20077;-70
2024/04/10 13:37:43;;;;;;;1.77;0.90;;;17.10;93.80;;;;;;10991156;26;20400;-70
2024/04/10 13:42:33;;;;;;;4.53;1.90;;;16.80;93.60;;;;;;10948410;26;19993;-70
2024/04/10 13:47:24;;;;;;;1.40;0.80;;;16.40;93.70;;;;;;10970209;26;19989;-70
2024/04/10 13:52:15;;;;;;;2.08;0.80;;;16.20;93.60;;;;;;10958391;26;20053;-70
2024/04/10 13:57:06;;;;;;;6.57;0.80;;;16.20;93.60;;;;;;10962173;26;20465;-71
2024/04/10 14:01:57;;;;;;;2.75;0.75;;;16.10;93.60;;;;;;10960829;26;20026;-71
2024/04/10 14:06:57;;;;;;;2.33;0.63;;;16.00;93.50;;;;;;10963330;26;20484;-71
2024/04/10 14:11:48;;;;;;;3.28;1.60;;;16.00;93.40;;;;;;10981984;26;19998;-69
2024/04/10 14:16:41;;;;;;;2.88;1.00;;;16.30;93.40;;;;;;10950330;26;20332;-69
2024/04/10 14:21:31;;;;;;;4.43;1.10;;;17.40;93.00;;;;;;10999985;26;20002;-70
2024/04/10 14:26:23;;;;;;;2.95;0.85;;;18.20;92.70;;;;;;10981559;26;20494;-70
2024/04/10 14:31:14;;;;;;;3.33;1.13;;;18.80;92.50;;;;;;10973795;26;20000;-69
2024/04/10 14:36:05;;;;;;;2.63;0.98;;;19.20;92.40;;;;;;10979281;26;20017;-72
2024/04/10 14:40:58;;;;;;;2.03;0.80;;;19.30;92.30;;;;;;10883415;21;20217;-65
2024/04/10 14:45:49;;;;;;;1.70;0.85;;;19.60;92.20;;;;;;10891804;26;20015;-65
2024/04/10 14:50:40;;;;;;;2.17;0.80;;;19.40;92.20;;;;;;10878494;26;20009;-68
2024/04/10 14:55:31;;;;;;;2.72;0.77;;;19.80;91.90;;;;;;10893010;26;20006;-66
2024/04/10 15:00:22;;;;;;;2.53;1.00;;;20.10;91.80;;;;;;10870088;26;19999;-67
2024/04/10 15:05:12;;;;;;;3.03;0.75;;;20.30;91.50;;;;;;10877238;26;20013;-67
2024/04/10 15:10:03;;;;;;;2.38;0.85;;;20.40;91.30;;;;;;10890902;26;20039;-68
2024/04/10 15:14:56;;;;;;;3.13;1.48;;;20.70;91.10;;;;;;10892465;26;20002;-68
2024/04/10 15:19:48;;;;;;;2.35;0.75;;;20.80;90.70;;;;;;10883671;26;20014;-68
2024/04/10 15:24:38;;;;;;;5.07;2.28;;;21.10;90.50;;;;;;10889623;26;20083;-68
2024/04/10 15:29:29;;;;;;;4.72;1.08;;;21.30;90.30;;;;;;10890812;26;19999;-64
2024/04/10 15:34:19;;;;;;;3.10;0.90;;;21.50;90.10;;;;;;10857379;26;20013;-67
2024/04/10 15:39:11;;;;;;;3.00;0.90;;;21.80;89.60;;;;;;10880284;26;19995;-68
2024/04/10 15:44:01;;;;;;;3.83;1.52;;;21.80;89.10;;;;;;10889389;26;20139;-69
2024/04/10 15:48:53;;;;;;;1.90;0.88;;;22.00;88.70;;;;;;10890742;26;19999;-69
2024/04/10 15:53:44;;;;;;;0.90;0.70;;;22.20;88.30;;;;;;10882434;26;20011;-66
2024/04/10 15:58:37;;;;;;;2.63;0.90;;;22.40;87.60;;;;;;10889710;26;20011;-67
2024/04/10 16:03:33;;;;;;;1.70;0.80;;;22.60;87.00;;;;;;10849904;26;20000;-69
2024/04/10 16:08:24;;;;;;;0.75;0.60;;;22.70;86.20;;;;;;10852292;26;19999;-70
2024/04/10 16:13:15;;;;;;;3.50;0.77;;;22.90;85.80;;;;;;10857195;26;19995;-67
2024/04/10 16:18:06;;;;;;;1.25;0.70;;;23.10;84.90;;;;;;10838694;26;20007;-70
2024/04/10 16:22:56;;;;;;;2.50;1.20;;;23.70;84.10;;;;;;10855340;26;20009;-69
2024/04/10 16:27:47;;;;;;;2.30;1.10;;;24.00;83.30;;;;;;10884707;26;20350;-70
2024/04/10 16:32:39;;;;;;;3.22;1.55;;;23.50;83.40;;;;;;10837671;26;19991;-71
2024/04/10 16:37:29;;;;;;;3.05;1.20;;;23.50;82.90;;;;;;10853887;26;20652;-77
2024/04/10 16:42:23;;;;;;;4.28;1.05;;;22.90;82.80;;;;;;10873523;26;20071;-67
2024/04/10 16:47:13;;;;;;;5.68;1.50;;;22.50;83.20;;;;;;10846132;26;20022;-66
2024/04/10 16:52:04;;;;;;;3.00;1.00;;;22.50;83.30;;;;;;10880886;26;20050;-68
2024/04/10 16:56:55;;;;;;;3.25;0.82;;;22.60;83.30;;;;;;10858457;26;20055;-66
2024/04/10 17:01:46;;;;;;;3.60;1.33;;;22.50;83.40;;;;;;10888834;26;20022;-65
2024/04/10 17:06:36;;;;;;;2.83;0.80;;;22.30;83.70;;;;;;10886627;26;20032;-67
2024/04/10 17:11:27;;;;;;;4.18;2.22;;;22.30;83.90;;;;;;10871403;26;19999;-67
2024/04/10 17:16:18;;;;;;;5.32;1.20;;;22.10;84.00;;;;;;10871119;26;20026;-69
2024/04/10 17:26:09;;;;;;;5.22;0.80;;;21.20;84.40;;;;;;11558480;21;20009;-67
2024/04/10 17:31:03;;;;;;;4.50;1.50;;;20.60;84.70;;;;;;10680652;26;20687;-69
2024/04/10 17:35:54;;;;;;;2.88;0.98;;;20.20;84.80;;;;;;10672531;26;20015;-68
2024/04/10 17:40:45;;;;;;;1.20;0.90;;;20.00;84.70;;;;;;10673671;26;20009;-68
2024/04/10 17:45:36;;;;;;;3.92;1.10;;;19.80;84.70;;;;;;10680321;26;20076;-69
2024/04/10 17:50:27;;;;;;;2.25;0.68;;;19.70;84.80;;;;;;10647254;26;20663;-69
2024/04/10 17:55:17;;;;;;;2.03;0.95;;;19.60;84.70;;;;;;10674060;26;20016;-71
2024/04/10 18:00:09;;;;;;;2.40;0.77;;;19.40;84.90;;;;;;10649419;26;20509;-71
2024/04/10 18:05:00;;;;;;;2.60;0.80;;;19.30;85.00;;;;;;10693788;26;20015;-71
2024/04/10 18:09:50;;;;;;;3.75;0.95;;;19.20;85.10;;;;;;10716880;26;20019;-71
2024/04/10 18:14:41;;;;;;;3.53;1.50;;;19.10;85.10;;;;;;10715567;26;20028;-71
2024/04/10 18:19:33;;;;;;;2.72;0.95;;;19.10;85.20;;;;;;10680768;26;20001;-70
2024/04/10 18:24:24;;;;;;;4.97;1.48;;;19.00;85.20;;;;;;10680466;26;20083;-70
2024/04/10 18:29:15;;;;;;;5.95;1.65;;;18.90;85.40;;;;;;10679909;26;19997;-71
2024/04/10 18:34:05;;;;;;;3.67;1.80;;;18.80;85.50;;;;;;10649841;26;20555;-71
2024/04/10 18:38:56;;;;;;;5.07;1.27;;;18.90;85.40;;;;;;10679759;26;20012;-69
2024/04/10 18:43:47;;;;;;;3.70;1.10;;;18.90;85.40;;;;;;10673078;26;21036;-70
2024/04/10 18:49:07;;;;;;;4.80;1.42;;;18.80;85.50;;;;;;10678569;26;20357;-71
2024/04/10 18:53:58;;;;;;;3.63;1.35;;;18.90;85.50;;;;;;10670804;21;20059;-74
2024/04/10 18:58:49;;;;;;;6.10;1.35;;;18.80;85.60;;;;;;10697600;26;20049;-74
2024/04/10 19:03:40;;;;;;;4.32;1.38;;;18.80;85.60;;;;;;10690779;26;20056;-77
2024/04/10 19:08:30;;;;;;;4.25;2.00;;;18.60;86.30;;;;;;10687302;26;20001;-71
2024/04/10 19:13:21;;;;;;;4.80;2.08;;;18.50;85.90;;;;;;10685893;26;20426;-71
2024/04/10 19:18:12;;;;;;;3.90;1.80;;;18.50;85.90;;;;;;10692037;26;20044;-73
2024/04/10 19:23:03;;;;;;;2.85;1.90;;;18.40;85.90;;;;;;10684498;26;20404;-73
2024/04/10 19:27:54;;;;;;;5.63;2.03;;;18.40;85.80;;;;;;10686514;26;20092;-74
2024/04/10 19:32:45;;;;;;;2.72;1.77;;;18.20;86.00;;;;;;10659534;26;20000;-72
2024/04/10 19:37:37;;;;;;;3.20;2.00;;;18.30;86.00;;;;;;10681096;26;20019;-68
2024/04/10 19:42:27;;;;;;;4.85;1.88;;;18.20;86.00;;;;;;10692256;26;20438;-69
2024/04/10 19:47:19;;;;;;;6.05;1.85;;;18.00;86.00;;;;;;10700233;26;19996;-72
2024/04/10 19:52:12;;;;;;;3.28;1.65;;;18.10;86.10;;;;;;10713901;26;20016;-75
2024/04/10 19:57:03;;;;;;;2.20;1.50;;;18.10;86.10;;;;;;10689278;26;20011;-75
2024/04/10 20:01:54;;;;;;;4.15;1.80;;;18.10;86.10;;;;;;10699593;26;20007;-70
2024/04/10 20:06:44;;;;;;;3.78;1.85;;;18.00;86.20;;;;;;10686165;26;20001;-73
2024/04/10 20:11:35;;;;;;;2.28;1.33;;;18.00;86.30;;;;;;10689315;26;20008;-69
2024/04/10 20:16:29;;;;;;;4.43;1.42;;;18.00;86.40;;;;;;10649250;26;20005;-71
2024/04/10 20:21:20;;;;;;;4.43;1.83;;;18.00;86.50;;;;;;10686805;26;20008;-71
2024/04/10 20:26:11;;;;;;;3.95;1.90;;;17.80;86.60;;;;;;10711265;26;20012;-73
2024/04/10 20:31:06;;;;;;;6.30;2.00;;;17.70;86.80;;;;;;10701921;26;20032;-68
2024/04/10 20:35:57;;;;;;;5.63;2.85;;;17.60;86.90;;;;;;10683871;26;20646;-69
2024/04/10 20:40:47;;;;;;;4.95;2.17;;;17.50;87.10;;;;;;10683648;26;20001;-68
2024/04/10 20:45:38;;;;;;;7.38;2.40;;;17.50;87.30;;;;;;10680259;26;20017;-68
2024/04/10 20:50:29;;;;;;;6.47;2.40;;;17.40;87.40;;;;;;10680301;26;20050;-70
2024/04/10 20:55:20;;;;;;;4.75;1.77;;;17.40;87.50;;;;;;10696571;26;20017;-73
2024/04/10 21:00:13;;;;;;;2.90;1.38;;;17.00;87.60;;;;;;10680317;26;20376;-71
2024/04/10 21:05:03;;;;;;;5.00;1.58;;;16.90;88.00;;;;;;10684572;26;19997;-69
2024/04/10 22:11:52;;;;;;;2.30;1.50;;;16.20;90.30;;;;;;10718670;26;20078;-69
2024/04/10 22:27:03;;;;;;;3.67;1.67;;;16.20;90.40;;;;;;10688180;26;20626;-70
2024/04/10 22:31:54;;;;;;;5.07;1.65;;;16.10;90.50;;;;;;10685037;26;20051;-71
2024/04/10 22:36:44;;;;;;;3.33;1.88;;;16.10;90.60;;;;;;10694494;26;20080;-71
2024/04/10 22:41:35;;;;;;;2.58;1.55;;;16.10;90.60;;;;;;10690592;26;20475;-70
2024/04/10 22:46:25;;;;;;;3.00;1.52;;;15.90;90.70;;;;;;10687709;26;20024;-70
2024/04/10 22:51:17;;;;;;;3.25;1.63;;;15.90;90.80;;;;;;10713402;26;20224;-70
2024/04/10 22:56:07;;;;;;;3.15;1.92;;;15.80;90.90;;;;;;10715101;26;20001;-71
2024/04/10 23:00:58;;;;;;;4.10;2.85;;;15.70;91.10;;;;;;10683655;26;20382;-73
2024/04/10 23:05:49;;;;;;;2.88;1.92;;;15.70;91.20;;;;;;10670815;26;19992;-70
2024/04/10 23:10:40;;;;;;;5.35;2.00;;;15.60;91.20;;;;;;10679022;26;20046;-70
2024/04/10 23:15:31;;;;;;;6.68;2.25;;;15.60;91.30;;;;;;10690514;26;20317;-73
2024/04/10 23:20:22;;;;;;;3.53;2.03;;;15.60;91.40;;;;;;10680264;26;19993;-70
2024/04/10 23:25:12;;;;;;;4.55;1.55;;;15.60;91.50;;;;;;10731134;26;20015;-70
2024/04/10 23:30:03;;;;;;;6.47;2.05;;;15.70;91.60;;;;;;10700325;26;20012;-72
2024/04/10 23:34:54;;;;;;;2.85;1.50;;;15.70;91.60;;;;;;10671430;26;20363;-69
2024/04/10 23:39:44;;;;;;;3.50;1.50;;;15.50;91.60;;;;;;10685870;26;20068;-70
2024/04/10 23:44:35;;;;;;;3.38;1.33;;;15.50;91.70;;;;;;10722983;26;20012;-69
2024/04/10 23:49:26;;;;;;;5.00;1.90;;;15.30;91.80;;;;;;10678411;26;20011;-70
2024/04/10 23:54:17;;;;;;;3.47;2.42;;;15.20;91.90;;;;;;10664207;26;20079;-70
2024/04/10 23:59:07;;;;;;;2.88;2.08;;;15.10;91.90;;;;;;10700694;26;20091;-71
